createdAt,value
2023-06-10T00:01:14.843Z,18.27
2023-06-10T00:03:44.869Z,15.50
2023-06-10T00:06:13.161Z,14.57
2023-06-10T00:08:43.605Z,13.23
2023-06-10T00:11:15.002Z,13.83
2023-06-10T00:13:43.112Z,14.17
2023-06-10T00:16:11.361Z,14.23
2023-06-10T00:18:39.974Z,14.47
2023-06-10T00:21:08.240Z,12.70
2023-06-10T00:23:39.014Z,12.67
2023-06-10T00:26:08.661Z,13.40
2023-06-10T00:28:37.015Z,14.23
2023-06-10T00:31:05.689Z,13.40
2023-06-10T00:33:33.903Z,12.90
2023-06-10T00:36:02.151Z,13.30
2023-06-10T00:38:30.330Z,13.27
2023-06-10T00:40:58.522Z,13.07
2023-06-10T00:43:28.761Z,11.63
2023-06-10T00:45:57.093Z,11.17
2023-06-10T00:48:26.120Z,11.07
2023-06-10T00:50:54.748Z,10.83
2023-06-10T00:53:23.834Z,11.47
2023-06-10T00:55:51.995Z,11.37
2023-06-10T00:58:20.520Z,11.37
2023-06-10T01:00:51.121Z,11.60
2023-06-10T01:03:20.000Z,11.90
2023-06-10T01:05:52.595Z,11.43
2023-06-10T01:08:27.153Z,12.00
2023-06-10T01:10:58.161Z,13.27
2023-06-10T01:13:30.141Z,12.10
2023-06-10T01:15:59.963Z,13.40
2023-06-10T01:18:32.513Z,14.33
2023-06-10T01:21:00.745Z,11.33
2023-06-10T01:23:30.504Z,12.07
2023-06-10T01:26:01.494Z,11.87
2023-06-10T01:28:33.524Z,12.57
2023-06-10T01:31:09.418Z,11.57
2023-06-10T01:33:38.473Z,12.73
2023-06-10T01:36:06.998Z,13.17
2023-06-10T01:38:42.154Z,12.47
2023-06-10T01:41:10.992Z,12.30
2023-06-10T01:43:40.453Z,12.67
2023-06-10T01:46:08.655Z,11.33
2023-06-10T01:48:36.907Z,11.37
2023-06-10T01:51:05.262Z,12.13
2023-06-10T01:53:33.579Z,10.90
2023-06-10T01:56:03.164Z,11.40
2023-06-10T01:58:31.877Z,11.03
2023-06-10T02:01:00.229Z,10.23
2023-06-10T02:03:28.666Z,10.33
2023-06-10T02:05:57.135Z,11.07
2023-06-10T02:08:25.286Z,10.63
2023-06-10T02:10:53.568Z,11.00
2023-06-10T02:13:23.155Z,12.17
2023-06-10T02:15:51.470Z,16.03
2023-06-10T02:18:21.931Z,11.63
2023-06-10T02:20:50.307Z,11.70
2023-06-10T02:23:21.546Z,12.03
2023-06-10T02:25:50.133Z,11.47
2023-06-10T02:28:18.404Z,10.77
2023-06-10T02:30:48.117Z,11.73
2023-06-10T02:33:16.406Z,11.00
2023-06-10T02:35:44.693Z,10.50
2023-06-10T02:38:13.577Z,10.30
2023-06-10T02:40:42.176Z,10.73
2023-06-10T02:43:10.435Z,9.60
2023-06-10T02:45:38.723Z,9.67
2023-06-10T02:48:08.465Z,10.63
2023-06-10T02:50:36.850Z,10.50
2023-06-10T02:53:05.454Z,10.37
2023-06-10T02:55:34.674Z,11.67
2023-06-10T02:58:04.106Z,11.40
2023-06-10T03:00:32.983Z,11.73
2023-06-10T03:03:04.117Z,10.70
2023-06-10T03:05:33.939Z,10.40
2023-06-10T03:08:02.332Z,13.83
2023-06-10T03:10:30.685Z,10.33
2023-06-10T03:12:58.970Z,10.23
2023-06-10T03:15:27.568Z,10.90
2023-06-10T03:17:55.864Z,11.17
2023-06-10T03:20:24.751Z,11.03
2023-06-10T03:22:54.346Z,10.67
2023-06-10T03:25:22.731Z,10.20
2023-06-10T03:27:51.111Z,12.97
2023-06-10T03:30:19.690Z,10.70
2023-06-10T03:32:48.153Z,11.27
2023-06-10T03:35:16.476Z,11.83
2023-06-10T03:37:44.759Z,10.80
2023-06-10T03:40:14.881Z,11.30
2023-06-10T03:42:43.189Z,11.00
2023-06-10T03:45:12.294Z,10.67
2023-06-10T03:47:42.168Z,14.67
2023-06-10T03:50:10.990Z,12.33
2023-06-10T03:52:40.689Z,12.90
2023-06-10T03:55:09.727Z,11.60
2023-06-10T03:57:39.531Z,13.10
2023-06-10T04:00:12.790Z,12.83
2023-06-10T04:02:43.170Z,13.73
2023-06-10T04:05:11.566Z,18.43
2023-06-10T04:07:40.908Z,13.30
2023-06-10T04:10:09.809Z,14.40
2023-06-10T04:12:39.630Z,12.43
2023-06-10T04:15:08.697Z,13.67
2023-06-10T04:17:37.658Z,12.63
2023-06-10T04:20:09.012Z,14.00
2023-06-10T04:22:37.747Z,13.20
2023-06-10T04:25:06.134Z,14.50
2023-06-10T04:27:34.429Z,14.17
2023-06-10T04:30:05.079Z,13.23
2023-06-10T04:32:33.400Z,14.53
2023-06-10T04:35:02.339Z,14.97
2023-06-10T04:37:30.594Z,14.43
2023-06-10T04:40:00.549Z,19.93
2023-06-10T04:42:28.838Z,20.43
2023-06-10T04:44:57.215Z,13.33
2023-06-10T04:47:26.934Z,16.33
2023-06-10T04:49:55.273Z,14.83
2023-06-10T04:52:23.513Z,16.43
2023-06-10T04:54:51.683Z,17.03
2023-06-10T04:57:19.906Z,15.13
2023-06-10T04:59:48.329Z,12.90
2023-06-10T05:02:16.657Z,13.53
2023-06-10T05:04:46.328Z,17.37
2023-06-10T05:07:14.818Z,14.03
2023-06-10T05:09:43.037Z,18.87
2023-06-10T05:12:11.466Z,12.27
2023-06-10T05:14:39.674Z,17.37
2023-06-10T05:17:08.377Z,12.70
2023-06-10T05:19:37.141Z,13.57
2023-06-10T05:22:07.257Z,14.10
2023-06-10T05:24:35.456Z,13.50
2023-06-10T05:27:04.156Z,12.87
2023-06-10T05:29:32.323Z,15.03
2023-06-10T05:32:04.510Z,16.13
2023-06-10T05:34:32.963Z,14.47
2023-06-10T05:37:01.126Z,15.60
2023-06-10T05:39:30.749Z,15.30
2023-06-10T05:42:00.724Z,16.73
2023-06-10T05:44:29.033Z,14.80
2023-06-10T05:46:57.253Z,16.77
2023-06-10T05:49:25.698Z,17.30
2023-06-10T05:51:54.584Z,21.53
2023-06-10T05:54:22.747Z,16.90
2023-06-10T05:56:52.414Z,17.67
2023-06-10T05:59:20.596Z,20.43
2023-06-10T06:01:48.721Z,15.23
2023-06-10T06:04:16.944Z,17.20
2023-06-10T06:06:45.143Z,16.83
2023-06-10T06:09:14.016Z,18.50
2023-06-10T06:11:42.158Z,16.60
2023-06-10T06:14:12.048Z,16.90
2023-06-10T06:16:42.477Z,16.73
2023-06-10T06:19:11.803Z,17.57
2023-06-10T06:21:40.032Z,16.67
2023-06-10T06:24:08.697Z,16.90
2023-06-10T06:26:37.025Z,22.47
2023-06-10T06:29:05.220Z,23.90
2023-06-10T06:31:35.085Z,16.67
2023-06-10T06:34:03.330Z,22.67
2023-06-10T06:36:31.968Z,17.23
2023-06-10T06:39:00.350Z,16.43
2023-06-10T06:41:28.843Z,24.50
2023-06-10T06:43:57.122Z,23.43
2023-06-10T06:46:30.098Z,16.47
2023-06-10T06:48:59.860Z,18.67
2023-06-10T06:51:28.301Z,18.73
2023-06-10T06:54:00.102Z,16.93
2023-06-10T06:56:29.514Z,14.90
2023-06-10T06:58:58.341Z,17.10
2023-06-10T07:01:26.742Z,16.10
2023-06-10T07:03:57.597Z,17.00
2023-06-10T07:06:27.554Z,14.43
2023-06-10T07:08:55.740Z,15.47
2023-06-10T07:11:24.272Z,19.67
2023-06-10T07:13:52.514Z,19.00
2023-06-10T07:16:22.078Z,17.47
2023-06-10T07:18:50.340Z,17.60
2023-06-10T07:21:18.601Z,18.30
2023-06-10T07:23:48.455Z,16.63
2023-06-10T07:26:16.896Z,16.53
2023-06-10T07:28:45.208Z,17.10
2023-06-10T07:31:13.746Z,17.87
2023-06-10T07:33:42.073Z,14.17
2023-06-10T07:36:10.378Z,22.03
2023-06-10T07:38:38.638Z,18.93
2023-06-10T07:41:08.460Z,14.33
2023-06-10T07:43:36.951Z,11.90
2023-06-10T07:46:06.853Z,14.10
2023-06-10T07:48:35.223Z,11.17
2023-06-10T07:51:03.606Z,12.27
2023-06-10T07:53:31.921Z,10.53
2023-06-10T07:56:00.428Z,11.70
2023-06-10T07:58:30.219Z,12.20
2023-06-10T08:00:58.520Z,11.30
2023-06-10T08:03:27.078Z,11.93
2023-06-10T08:05:55.455Z,9.93
2023-06-10T08:08:23.730Z,9.33
2023-06-10T08:10:51.953Z,12.43
2023-06-10T08:13:20.148Z,9.27
2023-06-10T08:15:52.025Z,7.77
2023-06-10T08:18:20.361Z,10.83
2023-06-10T08:20:48.921Z,8.63
2023-06-10T08:23:17.440Z,8.67
2023-06-10T08:25:45.741Z,10.43
2023-06-10T08:28:14.120Z,7.27
2023-06-10T08:30:42.412Z,6.73
2023-06-10T08:33:12.255Z,10.00
2023-06-10T08:35:40.877Z,5.90
2023-06-10T08:38:09.198Z,7.73
2023-06-10T08:40:44.618Z,6.93
2023-06-10T08:43:17.928Z,6.30
2023-06-10T08:45:49.383Z,6.60
2023-06-10T08:48:19.506Z,8.03
2023-06-10T08:50:49.017Z,6.57
2023-06-10T08:53:18.829Z,6.43
2023-06-10T08:55:48.860Z,6.53
2023-06-10T08:58:17.602Z,8.53
2023-06-10T09:00:46.417Z,8.33
2023-06-10T09:03:14.850Z,10.50
2023-06-10T09:05:44.629Z,7.23
2023-06-10T09:08:13.028Z,8.53
2023-06-10T09:10:42.152Z,6.97
2023-06-10T09:13:10.442Z,6.93
2023-06-10T09:15:38.686Z,12.43
2023-06-10T09:18:07.463Z,8.47
2023-06-10T09:20:35.807Z,6.90
2023-06-10T09:23:05.672Z,8.17
2023-06-10T09:25:37.546Z,7.83
2023-06-10T09:28:06.013Z,8.20
2023-06-10T09:30:34.757Z,8.13
2023-06-10T09:33:03.957Z,6.87
2023-06-10T09:35:32.743Z,7.93
2023-06-10T09:38:02.172Z,9.90
2023-06-10T09:40:32.644Z,6.80
2023-06-10T09:43:01.724Z,6.43
2023-06-10T09:45:32.131Z,7.20
2023-06-10T09:48:00.712Z,6.30
2023-06-10T09:50:29.316Z,8.57
2023-06-10T09:52:58.973Z,7.23
2023-06-10T09:55:27.639Z,6.83
2023-06-10T09:57:58.536Z,7.47
2023-06-10T10:00:27.346Z,7.67
2023-06-10T10:02:56.044Z,6.93
2023-06-10T10:05:25.103Z,8.70
2023-06-10T10:07:53.891Z,7.27
2023-06-10T10:10:22.972Z,7.77
2023-06-10T10:12:53.415Z,7.40
2023-06-10T10:15:24.565Z,7.17
2023-06-10T10:17:55.523Z,7.10
2023-06-10T10:20:27.492Z,7.67
2023-06-10T10:22:59.449Z,9.00
2023-06-10T10:25:29.813Z,8.77
2023-06-10T10:28:02.636Z,7.10
2023-06-10T10:30:32.841Z,6.53
2023-06-10T10:33:07.687Z,7.27
2023-06-10T10:35:38.864Z,7.27
2023-06-10T10:38:07.615Z,6.63
2023-06-10T10:40:36.339Z,6.80
2023-06-10T10:43:05.705Z,6.47
2023-06-10T10:45:35.759Z,7.23
2023-06-10T10:48:08.685Z,7.20
2023-06-10T10:50:36.872Z,7.00
2023-06-10T10:53:06.396Z,7.50
2023-06-10T10:55:35.208Z,8.27
2023-06-10T10:58:06.142Z,7.93
2023-06-10T11:00:36.490Z,7.23
2023-06-10T11:03:10.878Z,7.10
2023-06-10T11:05:43.399Z,6.53
2023-06-10T11:08:12.164Z,7.20
2023-06-10T11:10:41.260Z,7.33
2023-06-10T11:13:10.818Z,8.67
2023-06-10T11:15:48.615Z,7.53
2023-06-10T11:18:26.409Z,7.00
2023-06-10T11:20:56.860Z,8.73
2023-06-10T11:23:42.821Z,7.53
2023-06-10T11:26:15.115Z,5.97
2023-06-10T11:28:43.649Z,9.37
2023-06-10T11:31:21.331Z,9.50
2023-06-10T11:33:49.954Z,5.87
2023-06-10T11:36:19.512Z,7.10
2023-06-10T11:38:47.682Z,5.73
2023-06-10T11:41:16.159Z,6.97
2023-06-10T11:43:45.497Z,5.63
2023-06-10T11:46:15.683Z,5.03
2023-06-10T11:48:50.859Z,5.80
2023-06-10T11:51:19.165Z,6.07
2023-06-10T11:53:47.411Z,6.57
2023-06-10T11:56:15.797Z,6.83
2023-06-10T11:58:46.226Z,6.33
2023-06-10T12:01:28.158Z,9.30
2023-06-10T12:04:01.312Z,5.37
2023-06-10T12:06:29.594Z,5.80
2023-06-10T12:09:07.393Z,5.50
2023-06-10T12:11:42.737Z,7.03
2023-06-10T12:14:10.970Z,5.23
2023-06-10T12:16:40.782Z,7.47
2023-06-10T12:19:09.552Z,5.30
2023-06-10T12:21:40.356Z,8.53
2023-06-10T12:24:10.319Z,6.87
2023-06-10T12:26:40.228Z,6.07
2023-06-10T12:29:25.889Z,7.70
2023-06-10T12:32:00.316Z,7.57
2023-06-10T12:34:35.668Z,5.77
2023-06-10T12:37:06.180Z,5.03
2023-06-10T12:39:35.080Z,5.57
2023-06-10T12:42:03.766Z,5.50
2023-06-10T12:44:32.871Z,7.27
2023-06-10T12:47:02.733Z,4.03
2023-06-10T12:49:30.973Z,6.07
2023-06-10T12:51:59.557Z,7.60
2023-06-10T12:54:27.839Z,6.53
2023-06-10T12:56:56.621Z,7.37
2023-06-10T12:59:25.317Z,6.33
2023-06-10T13:01:54.327Z,6.13
2023-06-10T13:04:24.461Z,5.27
2023-06-10T13:06:52.939Z,7.07
2023-06-10T13:09:21.406Z,4.53
2023-06-10T13:11:49.605Z,3.60
2023-06-10T13:14:18.483Z,4.53
2023-06-10T13:16:47.746Z,5.60
2023-06-10T13:19:16.382Z,7.17
2023-06-10T13:21:45.997Z,6.13
2023-06-10T13:24:14.521Z,3.43
2023-06-10T13:26:42.993Z,5.27
2023-06-10T13:29:15.254Z,6.07
2023-06-10T13:31:43.955Z,5.67
2023-06-10T13:34:12.559Z,3.80
2023-06-10T13:36:40.901Z,4.43
2023-06-10T13:39:10.772Z,10.97
2023-06-10T13:41:39.014Z,5.30
2023-06-10T13:44:07.718Z,3.73
2023-06-10T13:46:36.000Z,4.73
2023-06-10T13:49:04.289Z,5.10
2023-06-10T13:51:32.561Z,4.33
2023-06-10T13:54:00.937Z,5.07
2023-06-10T13:56:30.748Z,3.07
2023-06-10T13:59:00.664Z,4.87
2023-06-10T14:01:30.211Z,5.67
2023-06-10T14:04:00.374Z,11.93
2023-06-10T14:06:28.806Z,4.17
2023-06-10T14:08:57.369Z,3.07
2023-06-10T14:11:25.657Z,5.73
2023-06-10T14:13:57.626Z,5.27
2023-06-10T14:16:25.914Z,3.30
2023-06-10T14:18:54.182Z,3.87
2023-06-10T14:21:22.485Z,5.40
2023-06-10T14:23:53.238Z,4.50
2023-06-10T14:26:22.920Z,4.07
2023-06-10T14:28:51.180Z,6.07
2023-06-10T14:31:21.024Z,3.63
2023-06-10T14:33:49.420Z,7.00
2023-06-10T14:36:17.783Z,4.93
2023-06-10T14:38:47.572Z,3.63
2023-06-10T14:41:15.780Z,5.77
2023-06-10T14:43:44.082Z,3.40
2023-06-10T14:46:12.284Z,4.30
2023-06-10T14:48:42.074Z,3.27
2023-06-10T14:51:10.218Z,2.77
2023-06-10T14:53:38.401Z,3.17
2023-06-10T14:56:06.993Z,5.27
2023-06-10T14:58:35.197Z,2.97
2023-06-10T15:01:03.616Z,4.17
2023-06-10T15:03:31.884Z,3.07
2023-06-10T15:06:02.194Z,4.13
2023-06-10T15:08:30.452Z,5.67
2023-06-10T15:10:58.791Z,4.07
2023-06-10T15:13:27.022Z,3.30
2023-06-10T15:15:55.336Z,5.00
2023-06-10T15:18:23.592Z,9.70
2023-06-10T15:20:51.789Z,3.37
2023-06-10T15:23:21.470Z,4.23
2023-06-10T15:25:49.684Z,5.20
2023-06-10T15:28:18.039Z,7.77
2023-06-10T15:30:46.190Z,7.47
2023-06-10T15:33:14.684Z,4.53
2023-06-10T15:35:43.431Z,3.30
2023-06-10T15:38:11.704Z,4.73
2023-06-10T15:40:43.043Z,3.90
2023-06-10T15:43:11.207Z,4.40
2023-06-10T15:45:39.446Z,9.03
2023-06-10T15:48:07.832Z,7.23
2023-06-10T15:50:36.371Z,6.07
2023-06-10T15:53:04.868Z,6.20
2023-06-10T15:55:33.029Z,4.33
2023-06-10T15:58:05.121Z,6.07
2023-06-10T16:00:33.610Z,6.13
2023-06-10T16:03:02.586Z,2.90
2023-06-10T16:05:30.890Z,3.87
2023-06-10T16:08:01.945Z,3.23
2023-06-10T16:10:31.160Z,9.03
2023-06-10T16:12:59.294Z,3.07
2023-06-10T16:15:28.948Z,5.70
2023-06-10T16:17:59.595Z,5.20
2023-06-10T16:20:27.959Z,2.63
2023-06-10T16:22:56.203Z,7.63
2023-06-10T16:25:24.442Z,2.90
2023-06-10T16:27:52.663Z,6.63
2023-06-10T16:30:20.887Z,3.33
2023-06-10T16:32:50.538Z,4.30
2023-06-10T16:35:18.827Z,5.47
2023-06-10T16:37:47.542Z,4.23
2023-06-10T16:40:15.775Z,3.50
2023-06-10T16:42:43.943Z,3.87
2023-06-10T16:45:12.698Z,3.27
2023-06-10T16:47:41.238Z,4.13
2023-06-10T16:50:11.279Z,3.53
2023-06-10T16:52:39.560Z,3.07
2023-06-10T16:55:08.454Z,5.33
2023-06-10T16:57:36.823Z,4.60
2023-06-10T17:00:05.888Z,4.63
2023-06-10T17:02:34.177Z,4.17
2023-06-10T17:05:02.393Z,6.33
2023-06-10T17:07:35.517Z,3.13
2023-06-10T17:10:05.004Z,4.17
2023-06-10T17:12:33.229Z,4.13
2023-06-10T17:15:01.399Z,8.07
2023-06-10T17:17:29.675Z,3.27
2023-06-10T17:19:58.283Z,4.77
2023-06-10T17:22:26.494Z,8.03
2023-06-10T17:24:56.396Z,4.57
2023-06-10T17:27:26.066Z,4.07
2023-06-10T17:29:54.699Z,3.20
2023-06-10T17:32:22.930Z,3.37
2023-06-10T17:34:51.358Z,4.50
2023-06-10T17:37:19.520Z,7.00
2023-06-10T17:39:47.970Z,6.07
2023-06-10T17:42:17.614Z,5.43
2023-06-10T17:44:46.545Z,5.87
2023-06-10T17:47:14.930Z,5.77
2023-06-10T17:49:43.030Z,3.90
2023-06-10T17:52:11.438Z,6.10
2023-06-10T17:54:39.668Z,4.77
2023-06-10T17:57:08.125Z,4.47
2023-06-10T17:59:37.758Z,3.47
2023-06-10T18:02:06.310Z,4.27
2023-06-10T18:04:34.639Z,5.70
2023-06-10T18:07:03.032Z,3.77
2023-06-10T18:09:31.211Z,7.00
2023-06-10T18:11:59.410Z,3.77
2023-06-10T18:14:27.570Z,7.07
2023-06-10T18:16:57.163Z,5.97
2023-06-10T18:19:25.337Z,5.63
2023-06-10T18:21:53.564Z,6.13
2023-06-10T18:24:22.506Z,5.17
2023-06-10T18:26:50.978Z,4.70
2023-06-10T18:29:19.174Z,3.90
2023-06-10T18:31:47.518Z,10.83
2023-06-10T18:34:17.145Z,7.40
2023-06-10T18:36:45.441Z,5.47
2023-06-10T18:39:13.972Z,3.00
2023-06-10T18:41:42.147Z,5.73
2023-06-10T18:44:10.300Z,6.97
2023-06-10T18:46:38.591Z,3.73
2023-06-10T18:49:06.840Z,3.90
2023-06-10T18:51:36.513Z,5.90
2023-06-10T18:54:04.684Z,5.47
2023-06-10T18:56:35.295Z,3.40
2023-06-10T18:59:03.452Z,3.87
2023-06-10T19:01:31.673Z,4.87
2023-06-10T19:04:03.298Z,6.83
2023-06-10T19:06:31.542Z,4.37
2023-06-10T19:09:01.119Z,5.73
2023-06-10T19:11:30.269Z,4.23
2023-06-10T19:13:58.388Z,7.67
2023-06-10T19:16:26.651Z,4.03
2023-06-10T19:18:55.572Z,7.33
2023-06-10T19:21:23.761Z,4.10
2023-06-10T19:23:51.910Z,7.47
2023-06-10T19:26:22.220Z,4.97
2023-06-10T19:28:50.630Z,8.77
2023-06-10T19:31:20.127Z,6.37
2023-06-10T19:33:48.304Z,5.50
2023-06-10T19:36:17.813Z,5.10
2023-06-10T19:38:46.226Z,4.80
2023-06-10T19:41:14.423Z,6.40
2023-06-10T19:43:44.491Z,6.77
2023-06-10T19:46:13.720Z,3.47
2023-06-10T19:48:41.961Z,6.77
2023-06-10T19:51:10.072Z,4.77
2023-06-10T19:53:38.252Z,3.23
2023-06-10T19:56:08.422Z,4.80
2023-06-10T19:58:36.675Z,3.37
2023-06-10T20:01:06.355Z,6.73
2023-06-10T20:03:34.672Z,8.43
2023-06-10T20:06:04.147Z,7.00
2023-06-10T20:08:32.340Z,5.97
2023-06-10T20:11:00.520Z,7.23
2023-06-10T20:13:29.295Z,7.27
2023-06-10T20:15:57.530Z,4.27
2023-06-10T20:18:27.600Z,7.80
2023-06-10T20:20:55.775Z,7.70
2023-06-10T20:23:24.028Z,4.50
2023-06-10T20:25:52.228Z,5.80
2023-06-10T20:28:20.338Z,8.77
2023-06-10T20:30:48.583Z,5.33
2023-06-10T20:33:16.908Z,4.97
2023-06-10T20:35:46.743Z,8.87
2023-06-10T20:38:14.969Z,10.93
2023-06-10T20:40:43.254Z,4.37
2023-06-10T20:43:12.244Z,6.80
2023-06-10T20:45:40.503Z,6.53
2023-06-10T20:48:09.601Z,5.33
2023-06-10T20:50:37.916Z,4.53
2023-06-10T20:53:07.601Z,8.87
2023-06-10T20:55:36.269Z,11.00
2023-06-10T20:58:04.882Z,6.13
2023-06-10T21:00:33.467Z,6.23
2023-06-10T21:03:01.666Z,7.27
2023-06-10T21:05:30.083Z,5.30
2023-06-10T21:07:58.317Z,4.77
2023-06-10T21:10:28.747Z,6.50
2023-06-10T21:12:57.365Z,4.30
2023-06-10T21:15:25.746Z,10.67
2023-06-10T21:17:53.927Z,4.10
2023-06-10T21:20:22.082Z,4.67
2023-06-10T21:22:51.660Z,8.63
2023-06-10T21:25:20.288Z,8.17
2023-06-10T21:27:50.029Z,8.50
2023-06-10T21:30:18.200Z,6.00
2023-06-10T21:32:47.305Z,5.23
2023-06-10T21:35:16.180Z,5.50
2023-06-10T21:37:44.514Z,5.60
2023-06-10T21:40:14.840Z,8.80
2023-06-10T21:42:43.192Z,4.57
2023-06-10T21:45:14.210Z,5.63
2023-06-10T21:47:42.745Z,7.13
2023-06-10T21:50:11.318Z,4.43
2023-06-10T21:52:39.632Z,7.73
2023-06-10T21:55:08.324Z,7.47
2023-06-10T21:57:37.006Z,5.73
2023-06-10T22:00:12.674Z,6.37
2023-06-10T22:02:42.578Z,11.90
2023-06-10T22:05:11.423Z,9.33
2023-06-10T22:07:40.047Z,4.50
2023-06-10T22:10:08.820Z,5.90
2023-06-10T22:12:37.422Z,5.43
2023-06-10T22:15:06.004Z,11.43
2023-06-10T22:17:34.685Z,6.77
2023-06-10T22:20:04.947Z,4.80
2023-06-10T22:22:33.196Z,6.73
2023-06-10T22:25:01.415Z,7.27
2023-06-10T22:28:00.636Z,7.37
2023-06-10T22:30:28.852Z,5.93
2023-06-10T22:32:57.266Z,6.37
2023-06-10T22:35:27.853Z,5.30
2023-06-10T22:37:56.164Z,4.50
2023-06-10T22:40:25.357Z,5.03
2023-06-10T22:42:54.682Z,4.70
2023-06-10T22:45:23.178Z,6.17
2023-06-10T22:47:51.911Z,7.57
2023-06-10T22:50:20.622Z,4.57
2023-06-10T22:52:50.760Z,7.60
2023-06-10T22:55:19.022Z,6.87
2023-06-10T22:57:47.719Z,5.30
2023-06-10T23:00:16.916Z,7.30
2023-06-10T23:02:45.474Z,7.13
2023-06-10T23:05:13.945Z,5.87
2023-06-10T23:07:42.282Z,11.37
2023-06-10T23:10:12.329Z,5.07
2023-06-10T23:12:41.000Z,8.60
2023-06-10T23:15:10.218Z,8.50
2023-06-10T23:17:39.440Z,9.80
2023-06-10T23:20:08.632Z,6.70
2023-06-10T23:22:38.056Z,6.37
2023-06-10T23:25:06.816Z,5.47
2023-06-10T23:27:36.552Z,6.80
2023-06-10T23:30:04.752Z,5.63
2023-06-10T23:32:33.143Z,8.37
2023-06-10T23:35:01.551Z,6.60
2023-06-10T23:37:30.672Z,7.20
2023-06-10T23:39:58.936Z,5.30
2023-06-10T23:42:27.374Z,7.10
2023-06-10T23:44:57.458Z,5.97
2023-06-10T23:47:25.678Z,6.20
2023-06-10T23:49:54.040Z,5.00
2023-06-10T23:52:23.220Z,4.97
2023-06-10T23:54:52.312Z,5.77
2023-06-10T23:57:20.497Z,6.10
2023-06-10T23:59:48.630Z,6.03
